This is the latest recevied weather packets stored in our database for station/object VE2CSM-13. If no packets are shown the sender has not sent any weather packets the latest 10 day(s).
| Time | Temp. | Humidity | Pressure | Rain* | Wind** | Luminosity | Snow |
|---|---|---|---|---|---|---|---|
| 1777701842 | -1.67° C | 89% | 1022.8 hPa | 0 mm | - | - | - |
| 1777701783 | -1.67° C | 89% | 1022.8 hPa | 0 mm | - | - | - |
| 1777701722 | -1.67° C | 89% | 1022.8 hPa | 0 mm | - | - | - |
| 1777701284 | -1.67° C | 89% | 1022.8 hPa | 0 mm | - | - | - |
| 1777697667 | -1.67° C | 87% | 1022.8 hPa | 0 mm | - | - | - |
| 1777694065 | -0.56° C | 85% | 1022.8 hPa | 0 mm | - | - | - |
| 1777690465 | 0.56° C | 80% | 1022.5 hPa | 0 mm | - | - | - |
| 1777686872 | 1.11° C | 82% | 1022.8 hPa | 0 mm | - | - | - |
| 1777683267 | 2.78° C | 76% | 1022.2 hPa | 0 mm | - | - | - |
| 1777681465 | 4.44° C | 68% | 1022 hPa | 0 mm | - | - | - |
| 1777679666 | 6.11° C | 58% | 1021.6 hPa | 0 mm | - | - | - |
| 1777677865 | 6.67° C | 54% | 1021.5 hPa | 0 mm | - | - | - |
| 1777676158 | 7.22° C | 56% | 1021.4 hPa | 0 mm | - | - | - |
| 1777672465 | 7.22° C | 54% | 1021.4 hPa | 0 mm | - | - | - |
| 1777670665 | 7.78° C | 53% | 1021.1 hPa | 0 mm | - | - | - |
| 1777668866 | 7.78° C | 54% | 1020.8 hPa | 0 mm | - | - | - |
| 1777665270 | 7.78° C | 54% | 1020.3 hPa | 0 mm | - | - | - |
| 1777661666 | 8.33° C | 57% | 1020.1 hPa | 0 mm | - | - | - |
| 1777658117 | 8.33° C | 54% | 1020 hPa | 0 mm | - | - | - |
| 1777654467 | 7.22° C | 58% | 1020 hPa | 0 mm | - | - | - |
| 1777652665 | 7.22° C | 62% | 1019.8 hPa | 0 mm | - | - | - |
| 1777650915 | 7.22° C | 65% | 1019.9 hPa | 0 mm | - | - | - |
| 1777647267 | 6.11° C | 70% | 1019.9 hPa | 0 mm | - | - | - |
| 1777643666 | 4.44° C | 76% | 1019.9 hPa | 0 mm | - | - | - |
| 1777640066 | 5° C | 74% | 1019.5 hPa | 0 mm | - | - | - |
* Rain latest hour (hover to see other rain measurements)
** Current wind speed in m/s (hover to see current wind gust speed)